VDF weather

Vigía Del Fuerte Airport
Murindo, Antioquía Department, Colombia

Public forecast

Using degrees Celsius for public forecast. Weather courtesy of forecast.io.

METAR (pilot weather report)

Report is more than 6 hours old.

Closest report is José Celestino Mutis Airport, 38.1 nm (70.6 km) SW. Retrieved 2019/02/13 12:00 UTC (8 days ago):

SKBS 131200Z /////KT 5000 MIFG OVC030 XX/XX A//// RMK MIFG/S/N

TAF (pilot weather forecast)

Forecast is more than 12 hours old.

Closest forecast is Jose Maria Córdova International Airport, 90.7 nm (168.0 km) ESE. Retrieved 2019/02/14 06:12 UTC (7 days ago):

TAF SKRG 140500Z 1406/1506 01004KT 8000 VCFG SCT015 SCT080 TEMPO 1409/1412 2000 BR DZ BKN008 BECMG 1415/1417 10008KT TEMPO 1419/1422 7000 VCSH SCT015TCU BECMG 1501/1503 VRB02KT TX24/1419Z TN14/1411Z